Time;durP1;ratioP1;P1;durP2;ratioP2;P2;SDS_P1;SDS_P2;PMS_P1;PMS_P2;Temp;Humidity;BMP_temperature;BMP_pressure;BME280_temperature;BME280_humidity;BME280_pressure;Samples;Min_cycle;Max_cycle;Signal;HPM_P1;HPM_P2
2023/01/29 00:00:28;;;;;;;;;23.00;19.25;;;;;5.13;67.67;100625.59;146609;570;46016;-73
2023/01/29 00:03:25;;;;;;;;;28.50;19.25;;;;;7.96;68.50;101115.88;146617;577;45021;-71
2023/01/29 00:06:23;;;;;;;;;24.75;20.50;;;;;7.90;68.00;101123.19;146607;569;46016;-71
2023/01/29 00:09:24;;;;;;;;;24.75;22.50;;;;;7.83;68.31;101123.59;146611;612;46020;-70
2023/01/29 00:12:18;;;;;;;;;26.00;22.00;;;;;7.80;67.92;101136.28;146608;563;46012;-71
2023/01/29 00:15:13;;;;;;;;;28.00;24.75;;;;;7.81;68.78;101138.94;146616;614;46021;-72
2023/01/29 00:18:13;;;;;;;;;30.25;26.75;;;;;7.82;68.52;101137.28;146608;622;46016;-73
2023/01/29 00:21:05;;;;;;;;;42.25;35.25;;;;;7.78;68.29;101133.56;146612;709;46010;-70
2023/01/29 00:24:04;;;;;;;;;29.00;27.75;;;;;7.77;68.44;101141.22;146611;573;46017;-73
2023/01/29 00:27:10;;;;;;;;;32.75;27.50;;;;;7.75;68.57;101133.38;146612;645;46020;-74
2023/01/29 00:30:08;;;;;;;;;37.75;30.75;;;;;7.72;68.38;101140.00;146605;755;47013;-72
2023/01/29 00:33:04;;;;;;;;;30.75;28.50;;;;;7.68;67.76;101138.91;146613;646;47010;-72
2023/01/29 00:36:07;;;;;;;;;23.75;21.75;;;;;7.68;67.78;101141.47;146612;596;46016;-72
2023/01/29 00:39:13;;;;;;;;;26.00;23.50;;;;;7.68;67.94;101127.69;146608;569;46021;-73
2023/01/29 00:45:40;;;;;;;;;;;;;;;;;;;;;
2023/01/29 00:48:33;;;;;;;;;25.75;23.25;;;;;7.78;66.38;101123.25;146606;592;46012;-73
2023/01/29 00:51:38;;;;;;;;;26.00;21.75;;;;;7.85;66.63;101122.91;146611;650;46020;-75
2023/01/29 00:54:35;;;;;;;;;28.00;25.75;;;;;7.96;65.04;101126.19;146612;577;46017;-72
2023/01/29 00:57:54;;;;;;;;;15.25;13.00;;;;;8.05;63.80;101113.91;146616;571;46020;-70
2023/01/29 01:00:56;;;;;;;;;18.50;15.75;;;;;8.14;63.72;101121.37;146610;573;46014;-71
2023/01/29 01:03:57;;;;;;;;;15.25;13.00;;;;;8.20;62.69;101105.41;146613;577;46020;-71
2023/01/29 01:06:55;;;;;;;;;21.00;16.75;;;;;8.24;63.05;101112.56;146607;564;46917;-72
2023/01/29 01:13:17;;;;;;;;;14.00;12.00;;;;;8.29;62.17;101104.34;146611;609;46016;-73
2023/01/29 01:16:25;;;;;;;;;18.75;17.25;;;;;8.30;62.14;101097.47;146613;624;46021;-72
2023/01/29 01:19:27;;;;;;;;;18.00;17.25;;;;;8.29;61.08;101104.34;146608;609;46012;-72
2023/01/29 01:22:26;;;;;;;;;19.00;15.25;;;;;8.31;61.54;101104.41;146614;584;46022;-72
2023/01/29 01:25:23;;;;;;;;;20.50;17.50;;;;;8.30;61.39;101112.97;146609;592;46916;-71
2023/01/29 01:28:16;;;;;;;;;19.50;16.75;;;;;8.28;61.62;101109.38;146610;583;46020;-72
2023/01/29 01:31:24;;;;;;;;;23.00;16.25;;;;;8.28;61.62;101109.38;146611;740;46917;-72
2023/01/29 01:34:16;;;;;;;;;19.25;12.50;;;;;8.26;60.77;101114.47;146618;586;46010;-71
2023/01/29 01:37:14;;;;;;;;;19.25;14.75;;;;;8.27;60.00;101110.19;146609;678;46038;-73
2023/01/29 01:40:22;;;;;;;;;14.50;12.75;;;;;8.27;60.36;101117.94;146606;607;46020;-71
2023/01/29 01:43:18;;;;;;;;;12.00;11.50;;;;;8.27;59.78;101116.25;146610;595;46917;-72
2023/01/29 01:46:10;;;;;;;;;18.00;14.00;;;;;8.31;60.13;101119.91;146612;563;46012;-69
2023/01/29 01:49:23;;;;;;;;;11.00;11.00;;;;;8.32;60.70;101116.56;146611;605;46012;-70
2023/01/29 01:52:28;;;;;;;;;14.75;12.75;;;;;8.37;60.48;101117.75;146613;603;46021;-70
2023/01/29 01:55:26;;;;;;;;;16.25;12.00;;;;;8.39;59.77;101117.91;146610;632;46014;-70
2023/01/29 01:58:43;;;;;;;;;15.00;12.75;;;;;8.43;60.43;101122.47;146615;674;46021;-70
2023/01/29 02:01:52;;;;;;;;;11.50;9.25;;;;;8.45;59.85;101121.78;146616;584;46016;-70
2023/01/29 02:11:29;;;;;;;;;14.25;11.50;;;;;8.28;61.83;101130.94;146611;599;46010;-68
2023/01/29 02:14:33;;;;;;;;;14.25;13.00;;;;;8.24;62.15;101141.87;146605;570;46033;-69
2023/01/29 02:17:32;;;;;;;;;17.25;15.75;;;;;8.14;61.71;101131.72;146615;683;46010;-68
2023/01/29 02:20:33;;;;;;;;;21.75;19.25;;;;;8.13;62.67;101145.44;146608;682;46012;-68
2023/01/29 02:24:02;;;;;;;;;20.00;17.75;;;;;8.06;62.65;101141.53;146611;654;47012;-67
2023/01/29 02:27:53;;;;;;;;;22.75;18.75;;;;;6.42;63.00;100872.31;146613;563;46012;-67
2023/01/29 02:31:32;;;;;;;;;21.50;16.75;;;;;6.33;63.51;100869.09;146610;599;46020;-66
2023/01/29 02:35:30;;;;;;;;;17.75;14.25;;;;;7.75;64.07;101133.38;146607;638;46916;-67
2023/01/29 02:39:05;;;;;;;;;18.00;16.50;;;;;7.65;64.23;101143.84;146608;708;46010;-66
2023/01/29 02:42:48;;;;;;;;;20.25;15.00;;;;;7.61;64.55;101144.44;146610;627;46014;-67
2023/01/29 02:46:03;;;;;;;;;21.50;19.50;;;;;7.58;64.68;101149.37;146607;565;46021;-68
2023/01/29 02:49:30;;;;;;;;;24.75;23.00;;;;;7.57;64.81;101139.84;146605;573;46016;-67
2023/01/29 02:52:43;;;;;;;;;19.00;15.00;;;;;7.63;63.50;101151.50;146609;554;46021;-67
2023/01/29 02:56:23;;;;;;;;;19.75;17.00;;;;;6.05;63.17;100873.97;146610;686;47012;-67
2023/01/29 02:59:34;;;;;;;;;16.50;15.25;;;;;7.65;62.24;101149.00;146615;602;46010;-69
2023/01/29 03:02:42;;;;;;;;;12.75;11.50;;;;;7.66;62.10;101155.97;146616;655;46016;-69
2023/01/29 03:06:10;;;;;;;;;9.25;9.00;;;;;7.70;61.85;101152.81;146614;615;46021;-68
2023/01/29 03:09:42;;;;;;;;;13.00;9.75;;;;;7.76;59.98;101158.41;146622;563;46016;-69
2023/01/29 03:12:44;;;;;;;;;15.00;13.50;;;;;7.80;60.28;101151.78;146618;581;46013;-70
2023/01/29 03:16:00;;;;;;;;;16.00;12.75;;;;;5.13;59.57;100688.97;146612;566;46017;-72
2023/01/29 03:19:21;;;;;;;;;14.25;12.00;;;;;7.71;58.58;101162.34;146610;626;46020;-70
2023/01/29 03:22:20;;;;;;;;;10.75;9.00;;;;;7.60;59.90;101163.28;146610;596;46017;-70
2023/01/29 03:32:08;;;;;;;;;12.75;9.25;;;;;7.18;61.23;101160.34;146612;596;46010;-66
2023/01/29 03:35:29;;;;;;;;;;;;;;;;;;;;;
2023/01/29 03:38:40;;;;;;;;;13.00;10.00;;;;;6.99;63.36;101176.97;146613;577;46010;-69
2023/01/29 03:41:58;;;;;;;;;13.50;10.00;;;;;5.29;63.79;100887.22;146607;588;46016;-66
2023/01/29 03:45:28;;;;;;;;;8.25;7.50;;;;;5.14;63.86;100889.56;146614;616;46010;-65
2023/01/29 03:48:51;;;;;;;;;10.00;8.75;;;;;6.69;64.13;101173.94;146608;565;46016;-67
2023/01/29 03:52:37;;;;;;;;;9.25;9.00;;;;;4.98;64.75;100884.91;146605;590;46023;-68
2023/01/29 03:56:24;;;;;;;;;13.00;13.00;;;;;5.32;64.26;100936.31;146602;648;46014;-66
2023/01/29 03:59:44;;;;;;;;;12.25;11.75;;;;;6.68;65.27;101183.34;146614;582;46010;-66
2023/01/29 04:03:02;;;;;;;;;13.75;11.50;;;;;6.66;65.39;101171.12;146601;599;47012;-67
2023/01/29 04:06:22;;;;;;;;;16.50;12.75;;;;;6.59;65.21;101182.66;146605;610;46012;-67
2023/01/29 04:09:43;;;;;;;;;12.75;10.25;;;;;6.54;65.04;101186.59;146604;584;46016;-73
2023/01/29 04:13:08;;;;;;;;;12.25;9.00;;;;;6.35;65.58;101176.56;146611;608;46011;-72
2023/01/29 04:16:28;;;;;;;;;12.75;9.25;;;;;6.27;67.05;101189.69;146605;595;46027;-71
2023/01/29 04:19:46;;;;;;;;;10.50;10.00;;;;;6.20;67.13;101188.31;146611;603;46021;-69
2023/01/29 04:22:50;;;;;;;;;14.75;10.50;;;;;6.08;66.81;101185.72;146607;583;46016;-69
2023/01/29 04:26:22;;;;;;;;;11.75;11.00;;;;;4.35;67.16;100912.56;146610;598;46012;-68
2023/01/29 04:30:14;;;;;;;;;13.00;11.25;;;;;4.29;66.99;100922.34;146604;603;46012;-71
2023/01/29 04:33:45;;;;;;;;;8.00;8.00;;;;;5.77;67.69;101191.03;146614;585;46020;-71
2023/01/29 04:36:54;;;;;;;;;7.25;6.25;;;;;5.68;68.23;101205.75;146612;574;46012;-73
2023/01/29 04:40:27;;;;;;;;;10.00;10.00;;;;;5.61;68.41;101207.69;146610;601;46010;-73
2023/01/29 04:44:08;;;;;;;;;13.25;7.50;;;;;4.03;68.41;100946.84;146606;702;46013;-72
2023/01/29 04:47:44;;;;;;;;;14.75;10.25;;;;;5.46;69.03;101216.03;146608;588;46020;-72
2023/01/29 04:51:09;;;;;;;;;10.75;9.75;;;;;2.60;69.24;100730.94;146611;631;46016;-71
2023/01/29 04:54:44;;;;;;;;;14.00;9.75;;;;;2.88;68.64;100765.72;146609;598;46020;-70
2023/01/29 04:58:26;;;;;;;;;18.00;14.50;;;;;5.61;68.73;101220.56;146597;579;48915;-71
2023/01/29 05:01:36;;;;;;;;;12.00;10.00;;;;;5.83;69.49;101226.63;146607;593;46010;-71
2023/01/29 05:04:33;;;;;;;;;15.50;13.50;;;;;6.03;69.32;101235.94;146605;639;46017;-70
2023/01/29 05:07:37;;;;;;;;;16.50;12.00;;;;;6.12;67.87;101240.91;146613;616;46010;-71
2023/01/29 05:10:38;;;;;;;;;14.50;13.25;;;;;6.13;68.52;101235.84;146603;634;46016;-71
2023/01/29 05:13:38;;;;;;;;;18.00;12.50;;;;;6.11;68.46;101244.28;146609;711;46021;-69
2023/01/29 05:16:40;;;;;;;;;16.50;12.25;;;;;6.10;68.76;101243.34;146602;622;46016;-71
2023/01/29 05:19:47;;;;;;;;;17.00;12.00;;;;;6.11;68.21;101244.28;146613;686;46012;-71
2023/01/29 05:22:54;;;;;;;;;11.75;11.00;;;;;6.14;68.04;101234.19;146601;573;46012;-72
2023/01/29 05:26:04;;;;;;;;;12.50;12.50;;;;;6.18;69.45;101242.25;146609;588;47030;-73
2023/01/29 05:29:07;;;;;;;;;13.00;12.50;;;;;6.18;68.29;101241.38;146606;630;46017;-73
2023/01/29 05:32:08;;;;;;;;;13.50;12.50;;;;;6.11;68.56;101234.84;146606;564;46020;-73
2023/01/29 05:35:02;;;;;;;;;16.00;12.50;;;;;6.16;68.88;101248.06;146608;608;46013;-74
2023/01/29 05:38:11;;;;;;;;;17.00;13.50;;;;;4.67;68.07;100979.28;146611;586;46028;-74
2023/01/29 05:41:22;;;;;;;;;;;;;;;;;;;;;
2023/01/29 05:44:33;;;;;;;;;18.25;13.50;;;;;6.24;68.59;101257.28;146631;644;45020;-71
2023/01/29 05:47:31;;;;;;;;;19.00;18.00;;;;;6.27;69.13;101264.37;146621;603;47010;-71
2023/01/29 05:50:24;;;;;;;;;15.00;12.75;;;;;6.29;68.53;101245.66;146633;629;45021;-70
2023/01/29 05:53:27;;;;;;;;;16.00;11.25;;;;;6.45;68.91;101261.53;146633;638;45010;-71
2023/01/29 05:56:25;;;;;;;;;15.50;14.75;;;;;6.48;69.65;101259.19;146631;661;45020;-70
2023/01/29 05:59:36;;;;;;;;;18.25;13.00;;;;;6.48;69.26;101259.19;146632;566;45012;-71
2023/01/29 06:02:46;;;;;;;;;14.50;12.00;;;;;6.52;68.74;101255.16;146630;600;45010;-70
2023/01/29 06:05:51;;;;;;;;;19.25;14.50;;;;;6.56;69.52;101254.59;146627;605;45915;-71
2023/01/29 06:08:44;;;;;;;;;16.25;14.00;;;;;6.62;69.17;101257.63;146632;595;45020;-70
2023/01/29 06:11:41;;;;;;;;;17.25;13.25;;;;;6.68;69.62;101258.09;146625;593;45915;-71
2023/01/29 06:14:35;;;;;;;;;19.00;15.50;;;;;6.83;70.06;101254.88;146625;579;47010;-72
2023/01/29 06:17:33;;;;;;;;;16.50;13.00;;;;;7.41;70.23;101261.72;146626;600;45016;-72
2023/01/29 06:20:39;;;;;;;;;18.25;16.00;;;;;8.25;68.55;101262.50;146630;648;45020;-71
2023/01/29 06:23:35;;;;;;;;;14.00;12.25;;;;;9.19;67.05;101261.97;146630;591;45914;-72
2023/01/29 06:26:32;;;;;;;;;13.75;12.25;;;;;10.20;63.50;101269.16;146630;612;45021;-72
2023/01/29 06:29:27;;;;;;;;;19.25;15.75;;;;;11.05;58.43;101263.91;146626;601;45914;-70
2023/01/29 06:32:27;;;;;;;;;16.00;14.00;;;;;10.79;56.92;101088.59;146628;647;45020;-71
2023/01/29 06:35:22;;;;;;;;;19.75;15.25;;;;;12.47;56.16;101273.50;146622;667;45915;-72
2023/01/29 06:38:16;;;;;;;;;17.50;14.75;;;;;13.14;53.79;101281.22;146628;596;45915;-71
2023/01/29 06:41:24;;;;;;;;;15.75;14.25;;;;;13.75;54.21;101282.47;146630;566;45017;-71
2023/01/29 06:44:17;;;;;;;;;15.25;12.00;;;;;14.27;48.50;101275.34;146614;565;46010;-73
2023/01/29 06:47:23;;;;;;;;;21.50;20.25;;;;;14.64;49.46;101279.59;146611;564;46015;-75
2023/01/29 06:50:24;;;;;;;;;21.00;18.75;;;;;15.16;49.64;101281.78;146617;582;46010;-72
2023/01/29 06:53:20;;;;;;;;;24.50;23.25;;;;;15.74;46.41;101282.41;146610;591;46029;-72
2023/01/29 06:56:19;;;;;;;;;20.00;20.00;;;;;16.26;47.20;101286.97;146614;628;46011;-71
2023/01/29 06:59:21;;;;;;;;;18.75;14.50;;;;;16.78;43.43;101287.16;146609;585;46025;-71
2023/01/29 07:02:23;;;;;;;;;12.25;9.00;;;;;17.22;45.87;101294.75;146614;608;46021;-71
2023/01/29 07:05:19;;;;;;;;;9.00;8.75;;;;;17.53;41.09;101291.41;146611;608;46013;-70
2023/01/29 07:08:27;;;;;;;;;12.50;10.25;;;;;17.58;40.55;101297.72;146614;611;46020;-71
2023/01/29 07:11:26;;;;;;;;;8.50;8.50;;;;;17.36;41.62;101297.87;146611;565;46033;-71
2023/01/29 07:14:25;;;;;;;;;9.50;8.00;;;;;17.26;42.00;101305.41;146609;575;47049;-70
2023/01/29 07:17:21;;;;;;;;;11.50;11.50;;;;;17.23;42.67;101304.44;146609;595;46016;-77
2023/01/29 07:20:20;;;;;;;;;16.50;15.00;;;;;17.19;41.60;101305.16;146615;582;46020;-73
2023/01/29 07:23:36;;;;;;;;;16.75;13.75;;;;;15.72;45.29;101074.91;146610;618;46012;-75
2023/01/29 07:26:34;;;;;;;;;10.50;10.00;;;;;16.90;42.72;101304.16;146616;573;46010;-75
2023/01/29 07:29:38;;;;;;;;;11.00;10.00;;;;;16.73;44.56;101312.28;146612;592;47012;-72
2023/01/29 07:32:34;;;;;;;;;13.50;10.75;;;;;16.47;42.61;101311.34;146610;608;46020;-74
2023/01/29 07:35:33;;;;;;;;;10.25;10.00;;;;;16.24;44.78;101315.72;146611;585;46017;-72
2023/01/29 07:38:30;;;;;;;;;12.75;12.50;;;;;15.94;44.23;101318.06;146617;600;46010;-74
2023/01/29 07:41:27;;;;;;;;;17.75;16.25;;;;;15.63;41.98;101319.41;146615;575;47914;-74
2023/01/29 07:44:20;;;;;;;;;20.50;14.25;;;;;15.24;45.27;101327.44;146623;652;46012;-73
2023/01/29 07:47:16;;;;;;;;;14.00;12.50;;;;;15.11;46.44;101327.75;146627;616;45014;-71
2023/01/29 07:50:19;;;;;;;;;20.75;16.00;;;;;15.14;47.61;101332.19;146626;586;45021;-71
2023/01/29 07:53:30;;;;;;;;;14.50;13.00;;;;;15.15;46.92;101329.66;146618;577;46012;-72
2023/01/29 07:56:22;;;;;;;;;19.50;18.00;;;;;15.14;45.47;101334.78;146625;608;46914;-73
2023/01/29 07:59:21;;;;;;;;;13.50;12.00;;;;;14.97;45.64;101326.25;146627;749;45914;-75
2023/01/29 08:02:16;;;;;;;;;17.50;15.00;;;;;14.90;46.47;101329.44;146628;651;45020;-73
2023/01/29 08:05:15;;;;;;;;;18.25;15.00;;;;;14.92;49.19;101325.16;146629;602;45014;-72
2023/01/29 08:08:21;;;;;;;;;13.75;13.75;;;;;14.95;46.68;101334.03;146630;563;46010;-72
2023/01/29 08:11:17;;;;;;;;;14.25;11.75;;;;;14.87;46.52;101334.53;146626;668;45914;-72
2023/01/29 08:14:14;;;;;;;;;13.50;10.50;;;;;14.72;45.85;101338.25;146629;648;45021;-73
2023/01/29 08:17:09;;;;;;;;;11.75;11.50;;;;;14.61;46.04;101343.78;146630;577;45030;-70
2023/01/29 08:20:04;;;;;;;;;14.75;13.50;;;;;14.50;46.06;101340.69;146626;591;45020;-68
2023/01/29 08:23:24;;;;;;;;;13.75;11.25;;;;;14.37;46.80;101335.75;146626;585;46914;-70
2023/01/29 08:26:22;;;;;;;;;9.00;6.75;;;;;14.32;46.54;101346.84;146628;687;46020;-70
2023/01/29 08:29:42;;;;;;;;;12.75;11.00;;;;;14.25;48.02;101344.78;146628;564;46012;-70
2023/01/29 08:32:34;;;;;;;;;10.00;10.00;;;;;14.27;48.47;101348.38;146626;598;45020;-71
2023/01/29 08:35:32;;;;;;;;;12.50;10.75;;;;;14.45;48.95;101353.50;146627;570;46012;-72
2023/01/29 08:38:24;;;;;;;;;15.75;13.25;;;;;14.62;48.67;101340.38;146627;668;45020;-70
2023/01/29 08:41:18;;;;;;;;;15.25;13.00;;;;;14.79;47.35;101349.84;146618;678;46015;-71
2023/01/29 08:44:24;;;;;;;;;;;;;;;;;;;;;
2023/01/29 08:47:32;;;;;;;;;22.75;20.50;;;;;14.91;46.85;101347.75;146596;563;48915;-73
2023/01/29 08:50:33;;;;;;;;;13.25;12.75;;;;;14.99;45.99;101354.22;146605;564;46010;-67
2023/01/29 08:53:33;;;;;;;;;18.00;13.25;;;;;14.92;45.64;101356.50;146601;592;46016;-76
2023/01/29 08:56:29;;;;;;;;;13.00;11.75;;;;;14.82;45.60;101360.41;146601;583;46020;-77
2023/01/29 08:59:21;;;;;;;;;14.00;9.25;;;;;14.80;45.99;101359.47;146600;576;46914;-77
2023/01/29 09:02:15;;;;;;;;;12.00;12.00;;;;;14.82;46.34;101364.75;146604;570;47010;-77
2023/01/29 09:05:11;;;;;;;;;12.75;12.00;;;;;14.71;47.69;101365.19;146604;652;46017;-75
2023/01/29 09:08:17;;;;;;;;;14.50;13.25;;;;;14.70;48.81;101371.22;146605;564;46020;-75
2023/01/29 09:11:10;;;;;;;;;18.25;13.75;;;;;14.81;46.22;101370.81;146603;616;46016;-78
2023/01/29 09:14:28;;;;;;;;;14.25;13.25;;;;;14.69;46.35;101371.16;146602;627;46010;-78
2023/01/29 09:17:20;;;;;;;;;16.75;16.50;;;;;14.45;46.53;101374.38;146601;569;46014;-78
2023/01/29 09:20:14;;;;;;;;;17.75;14.75;;;;;14.29;48.49;101375.41;146602;602;46021;-77
2023/01/29 09:23:16;;;;;;;;;13.00;11.75;;;;;14.29;50.13;101372.78;146602;593;46914;-77
2023/01/29 09:26:11;;;;;;;;;15.75;13.25;;;;;14.26;47.39;101370.03;146617;665;45049;-77
2023/01/29 09:29:06;;;;;;;;;19.00;13.25;;;;;14.26;46.84;101361.31;146596;631;46016;-77
2023/01/29 09:32:03;;;;;;;;;13.00;10.25;;;;;14.38;46.79;101366.22;146611;601;46029;-80
2023/01/29 09:34:58;;;;;;;;;16.75;12.00;;;;;14.45;48.90;101361.34;146602;661;46917;-76
2023/01/29 09:37:59;;;;;;;;;15.50;14.50;;;;;14.53;50.84;101357.41;146607;620;46010;-79
2023/01/29 09:41:25;;;;;;;;;11.25;10.25;;;;;14.60;49.24;101347.25;146602;578;46013;-77
2023/01/29 09:45:05;;;;;;;;;18.50;17.50;;;;;14.73;49.64;101355.69;146606;571;46012;-77
2023/01/29 09:48:16;;;;;;;;;14.50;10.75;;;;;14.79;47.78;101355.94;146601;576;46017;-78
2023/01/29 09:51:32;;;;;;;;;;;;;;;;;;;;;
2023/01/29 09:55:38;;;;;;;;;;;;;;;;;;;;;
2023/01/29 09:58:55;;;;;;;;;17.75;11.00;;;;;12.65;50.48;101103.56;146607;569;46010;-77
2023/01/29 10:02:26;;;;;;;;;11.75;10.50;;;;;13.79;50.89;101341.72;146605;611;46012;-72
2023/01/29 10:06:08;;;;;;;;;12.75;10.00;;;;;12.19;52.06;101093.47;146600;622;47915;-76
2023/01/29 10:09:40;;;;;;;;;14.25;12.25;;;;;12.07;52.41;101092.84;146604;678;46012;-70
2023/01/29 10:13:00;;;;;;;;;11.00;10.25;;;;;13.39;51.37;101337.16;146608;575;46020;-73
2023/01/29 10:16:43;;;;;;;;;17.00;14.25;;;;;11.86;52.60;101087.44;146601;564;46012;-73
2023/01/29 10:20:22;;;;;;;;;12.00;10.75;;;;;13.08;49.18;101332.09;146607;601;46010;-73
2023/01/29 10:23:35;;;;;;;;;12.25;10.75;;;;;12.91;52.73;101329.53;146605;579;46012;-73
2023/01/29 10:26:34;;;;;;;;;14.25;13.25;;;;;12.82;52.56;101336.88;146602;699;47010;-72
2023/01/29 10:29:32;;;;;;;;;16.00;13.75;;;;;12.76;52.40;101330.47;146607;575;46914;-72
2023/01/29 10:32:38;;;;;;;;;11.50;11.25;;;;;12.68;52.01;101327.47;146608;574;46020;-72
2023/01/29 10:35:49;;;;;;;;;25.25;23.25;;;;;12.50;52.73;101303.97;146604;582;46016;-72
2023/01/29 10:39:01;;;;;;;;;14.50;11.50;;;;;12.57;52.48;101320.81;146602;619;46020;-74
2023/01/29 10:42:57;;;;;;;;;16.00;14.75;;;;;11.02;53.52;101037.09;146601;629;46014;-73
2023/01/29 10:46:43;;;;;;;;;25.75;22.25;;;;;12.67;52.27;101317.84;146601;602;47020;-73
2023/01/29 10:50:44;;;;;;;;;25.00;22.50;;;;;11.55;51.72;101119.56;146599;583;46016;-74
2023/01/29 10:54:22;;;;;;;;;17.00;17.00;;;;;12.64;49.20;101302.09;146602;564;46010;-74
2023/01/29 10:58:03;;;;;;;;;15.50;15.00;;;;;12.64;50.70;101302.09;146602;657;46016;-72
2023/01/29 11:01:07;;;;;;;;;23.75;21.50;;;;;12.62;48.22;101302.03;146604;649;46020;-73
2023/01/29 11:04:09;;;;;;;;;24.75;23.00;;;;;12.63;48.35;101297.72;146601;593;46014;-74
2023/01/29 11:07:08;;;;;;;;;22.00;20.00;;;;;12.65;49.21;101304.78;146602;577;47010;-74
2023/01/29 11:10:25;;;;;;;;;22.75;22.25;;;;;12.68;48.97;101296.25;146601;615;47013;-74
2023/01/29 11:13:30;;;;;;;;;21.75;20.75;;;;;12.69;47.81;101290.22;146601;611;46020;-73
2023/01/29 11:16:29;;;;;;;;;20.25;19.75;;;;;12.62;47.36;101290.72;146601;576;47012;-72
2023/01/29 11:19:55;;;;;;;;;25.25;20.75;;;;;11.14;48.75;101034.25;146608;579;46010;-73
2023/01/29 11:23:00;;;;;;;;;36.75;32.25;;;;;12.58;48.49;101287.03;146602;579;46012;-73
2023/01/29 11:25:56;;;;;;;;;17.75;15.50;;;;;12.60;47.70;101280.22;146605;584;46021;-73
2023/01/29 11:29:09;;;;;;;;;14.50;11.50;;;;;11.21;48.70;101028.59;146600;579;46016;-73
2023/01/29 11:32:58;;;;;;;;;18.00;15.50;;;;;11.24;49.42;101026.16;146600;593;47010;-73
2023/01/29 11:35:58;;;;;;;;;13.75;12.50;;;;;12.69;45.42;101269.41;146602;582;47012;-74
2023/01/29 11:38:59;;;;;;;;;17.00;14.75;;;;;12.73;47.29;101267.84;146609;668;46013;-72
2023/01/29 11:42:13;;;;;;;;;23.75;20.75;;;;;12.80;45.54;101254.31;146601;584;46016;-73
2023/01/29 11:45:45;;;;;;;;;11.75;11.00;;;;;12.85;48.49;101258.94;146628;599;45020;-73
2023/01/29 11:48:52;;;;;;;;;16.75;14.75;;;;;12.97;48.85;101256.09;146616;597;46013;-73
2023/01/29 11:52:00;;;;;;;;;19.00;15.75;;;;;13.07;48.84;101258.31;146626;585;47010;-73
2023/01/29 11:55:36;;;;;;;;;31.75;27.75;;;;;12.18;49.80;101079.59;146627;588;45016;-72
2023/01/29 11:58:49;;;;;;;;;21.50;19.50;;;;;13.29;47.45;101244.66;146628;573;45020;-72
2023/01/29 12:01:58;;;;;;;;;32.50;27.50;;;;;13.38;48.48;101247.72;146627;566;46010;-72
2023/01/29 12:04:53;;;;;;;;;27.75;23.00;;;;;13.39;46.10;101251.22;146627;569;45020;-73
2023/01/29 12:07:52;;;;;;;;;19.75;15.75;;;;;13.34;46.33;101247.50;146617;563;46012;-74
2023/01/29 12:10:55;;;;;;;;;17.50;15.50;;;;;13.24;47.44;101242.63;146630;592;46011;-74
2023/01/29 12:14:08;;;;;;;;;16.25;14.00;;;;;13.18;47.46;101251.06;146628;563;45012;-75
2023/01/29 12:17:49;;;;;;;;;18.25;15.75;;;;;11.73;49.68;100988.03;146627;565;46010;-76
2023/01/29 12:20:57;;;;;;;;;20.50;18.25;;;;;13.13;47.89;101242.09;146629;635;45016;-76
2023/01/29 12:24:40;;;;;;;;;12.00;12.00;;;;;11.55;49.01;100982.78;146630;628;45011;-74
2023/01/29 12:28:34;;;;;;;;;;;;;;;;;;;;;
2023/01/29 12:32:02;;;;;;;;;15.50;15.50;;;;;12.89;47.57;101224.44;146632;663;45010;-76
2023/01/29 12:35:32;;;;;;;;;17.75;14.75;;;;;13.08;45.57;101215.88;146629;575;45912;-76
2023/01/29 12:38:35;;;;;;;;;12.75;11.25;;;;;13.23;44.05;101215.69;146630;589;45021;-77
2023/01/29 12:42:08;;;;;;;;;16.00;14.00;;;;;12.10;45.52;100986.44;146626;570;45016;-77
2023/01/29 12:45:18;;;;;;;;;15.75;14.00;;;;;13.68;47.83;101208.31;146624;660;47010;-77
2023/01/29 12:48:24;;;;;;;;;16.25;15.00;;;;;14.00;43.44;101206.28;146627;599;45915;-77
2023/01/29 12:51:54;;;;;;;;;;;;;;;;;;;;;
2023/01/29 12:54:58;;;;;;;;;11.50;10.00;;;;;14.31;44.25;101206.81;146623;576;47914;-75
2023/01/29 12:58:32;;;;;;;;;14.50;10.75;;;;;14.16;47.29;101213.94;146632;648;45020;-76
2023/01/29 13:01:50;;;;;;;;;20.25;17.25;;;;;13.86;45.85;101206.56;146625;635;47931;-75
2023/01/29 13:05:26;;;;;;;;;18.25;16.00;;;;;12.34;48.38;100952.94;146628;571;46012;-74
2023/01/29 13:08:55;;;;;;;;;22.25;20.00;;;;;13.92;46.29;101187.66;146628;671;46010;-75
2023/01/29 13:12:31;;;;;;;;;22.75;19.00;;;;;12.86;46.77;100945.81;146625;582;45020;-76
2023/01/29 13:15:55;;;;;;;;;20.25;17.50;;;;;11.90;45.58;100736.91;146626;572;46012;-76
2023/01/29 13:19:33;;;;;;;;;10.25;8.00;;;;;13.43;44.88;100958.81;146635;575;46010;-74
2023/01/29 13:22:44;;;;;;;;;15.75;11.50;;;;;13.67;41.24;100958.94;146629;647;45916;-76
2023/01/29 13:25:51;;;;;;;;;14.00;11.75;;;;;15.20;39.77;101188.75;146616;577;46020;-74
2023/01/29 13:28:51;;;;;;;;;16.00;14.75;;;;;15.39;38.98;101195.59;146624;660;46016;-75
2023/01/29 13:31:57;;;;;;;;;20.25;19.50;;;;;15.52;41.27;101195.28;146628;600;47011;-76
2023/01/29 13:35:06;;;;;;;;;19.00;16.50;;;;;15.74;40.04;101198.75;146627;570;45916;-76
2023/01/29 13:38:31;;;;;;;;;17.00;15.00;;;;;14.66;41.05;100974.28;146628;685;45011;-74
2023/01/29 13:42:13;;;;;;;;;17.00;16.00;;;;;16.05;38.49;101198.16;146620;652;46012;-74
2023/01/29 13:45:50;;;;;;;;;13.75;13.00;;;;;16.07;40.80;101209.53;146630;576;45020;-76
2023/01/29 13:49:08;;;;;;;;;11.75;9.00;;;;;16.07;40.03;101205.19;146628;565;45914;-75
2023/01/29 13:52:26;;;;;;;;;10.00;8.75;;;;;16.11;37.57;101204.50;146635;623;46021;-76
2023/01/29 13:55:45;;;;;;;;;5.50;4.25;;;;;16.08;41.05;101207.00;146635;632;46010;-76
2023/01/29 13:59:24;;;;;;;;;6.50;6.25;;;;;14.78;42.38;100987.81;146633;576;45020;-74
2023/01/29 14:02:32;;;;;;;;;7.75;5.75;;;;;16.12;41.06;101206.28;146638;615;45010;-77
2023/01/29 14:06:07;;;;;;;;;10.00;7.00;;;;;16.31;41.05;101205.19;146636;589;45010;-75
2023/01/29 14:09:29;;;;;;;;;8.75;8.75;;;;;16.22;34.22;101201.38;146634;564;45037;-75
2023/01/29 14:12:52;;;;;;;;;17.25;16.50;;;;;15.61;34.03;101210.44;146630;563;46010;-76
2023/01/29 14:15:53;;;;;;;;;12.75;12.75;;;;;15.09;37.14;101205.75;146630;598;45913;-77
2023/01/29 14:19:07;;;;;;;;;16.75;14.00;;;;;14.43;37.81;101208.19;146629;629;45020;-76
2023/01/29 14:22:07;;;;;;;;;10.00;10.00;;;;;13.80;38.74;101211.50;146631;604;46915;-74
2023/01/29 14:25:46;;;;;;;;;9.25;8.25;;;;;13.28;41.98;101213.34;146632;565;45020;-76
2023/01/29 14:29:08;;;;;;;;;10.00;8.50;;;;;11.30;41.15;100922.63;146633;602;45914;-77
2023/01/29 14:32:32;;;;;;;;;11.25;10.50;;;;;11.32;45.92;100966.03;146625;571;46010;-75
2023/01/29 14:35:40;;;;;;;;;18.50;14.75;;;;;12.67;42.22;101217.28;146627;590;45913;-75
2023/01/29 14:38:58;;;;;;;;;16.00;14.50;;;;;12.45;41.16;101228.28;146632;621;45010;-74
2023/01/29 14:41:55;;;;;;;;;17.50;16.25;;;;;12.22;43.04;101223.63;146628;566;45016;-72
2023/01/29 14:45:02;;;;;;;;;12.00;10.00;;;;;12.01;43.51;101226.87;146630;574;46010;-77
2023/01/29 14:48:37;;;;;;;;;21.25;19.25;;;;;10.28;42.51;100960.44;146628;600;45914;-74
2023/01/29 14:51:47;;;;;;;;;24.00;19.00;;;;;11.67;44.18;101234.50;146630;570;45010;-74
2023/01/29 14:55:01;;;;;;;;;27.50;24.25;;;;;9.99;44.08;100968.22;146625;578;45016;-76
2023/01/29 14:58:16;;;;;;;;;28.50;26.75;;;;;11.44;45.85;101240.16;146627;642;46020;-75
2023/01/29 15:01:35;;;;;;;;;18.75;18.25;;;;;11.31;45.81;101239.47;146625;745;46915;-74
2023/01/29 15:04:51;;;;;;;;;24.25;24.25;;;;;11.23;45.60;101247.63;146624;573;45020;-76
2023/01/29 15:08:53;;;;;;;;;41.50;34.75;;;;;11.14;45.75;101247.09;146627;647;46010;-74